Time;durP1;ratioP1;P1;durP2;ratioP2;P2;SDS_P1;SDS_P2;PMS_P1;PMS_P2;Temp;Humidity;BMP_temperature;BMP_pressure;BME280_temperature;BME280_humidity;BME280_pressure;Samples;Min_cycle;Max_cycle;Signal;HPM_P1;HPM_P2
2023/12/13 00:00:26;;;;;;;9.07;5.93;;;;;;;5.07;100.00;63458.69;5051042;28;20674;-54
2023/12/13 00:02:51;;;;;;;7.40;4.67;;;;;;;5.33;100.00;63483.97;5051280;28;20217;-55
2023/12/13 00:05:17;;;;;;;5.97;3.87;;;;;;;5.77;100.00;63534.38;5051295;28;20204;-56
2023/12/13 00:07:42;;;;;;;7.97;4.47;;;;;;;5.52;100.00;63509.66;5049874;28;20236;-57
2023/12/13 00:10:08;;;;;;;11.77;5.90;;;;;;;4.85;100.00;63432.81;5050945;28;20577;-53
2023/12/13 00:12:34;;;;;;;9.77;6.07;;;;;;;5.20;100.00;63470.38;5050727;28;20217;-56
2023/12/13 00:14:59;;;;;;;11.97;6.57;;;;;;;4.79;100.00;63428.22;5051037;28;20194;-54
2023/12/13 00:17:25;;;;;;;14.27;7.63;;;;;;;4.67;100.00;63413.22;5050662;28;20378;-54
2023/12/13 00:19:50;;;;;;;13.97;8.33;;;;;;;4.62;100.00;63407.25;5050820;28;20193;-53
2023/12/13 00:22:16;;;;;;;18.60;9.07;;;;;;;4.57;100.00;63401.81;5050706;28;20221;-53
2023/12/13 00:27:33;;;;;;;16.13;9.80;;;;;;;5.19;100.00;63471.78;5051551;28;20227;-52
2023/12/13 00:29:58;;;;;;;19.07;8.80;;;;;;;5.31;100.00;63481.78;5049329;28;20216;-53
2023/12/13 00:32:24;;;;;;;18.03;10.97;;;;;;;4.98;100.00;63444.47;5050936;28;20680;-54
2023/12/13 00:34:49;;;;;;;15.70;9.33;;;;;;;4.93;100.00;63443.47;5050842;28;20185;-54
2023/12/13 00:37:15;;;;;;;16.17;9.53;;;;;;;5.18;100.00;63470.13;5050596;28;20262;-55
2023/12/13 00:39:42;;;;;;;17.10;9.60;;;;;;;5.40;100.00;63494.09;5050441;28;20197;-54
2023/12/13 00:42:07;;;;;;;15.00;8.77;;;;;;;5.72;100.00;63528.94;5050600;28;20220;-60
2023/12/13 00:44:33;;;;;;;15.53;9.30;;;;;;;5.57;100.00;63512.59;5050450;28;20193;-57
2023/12/13 00:46:58;;;;;;;13.87;7.87;;;;;;;5.39;100.00;63493.00;5050822;28;20270;-55
2023/12/13 00:49:24;;;;;;;16.10;8.43;;;;;;;5.56;100.00;63511.50;5050414;28;20235;-54
2023/12/13 00:51:49;;;;;;;12.90;8.07;;;;;;;5.50;100.00;63505.53;5050512;28;20585;-54
2023/12/13 00:54:14;;;;;;;15.20;8.73;;;;;;;5.59;100.00;63514.78;5050286;28;20204;-55
2023/12/13 00:56:40;;;;;;;16.97;9.37;;;;;;;5.43;100.00;63497.34;5050359;28;20589;-54
2023/12/13 00:59:05;;;;;;;19.67;10.57;;;;;;;5.39;100.00;63491.06;5048970;28;20201;-55
2023/12/13 01:01:31;;;;;;;13.83;8.87;;;;;;;5.44;100.00;63498.97;5050383;28;20655;-55
2023/12/13 01:03:57;;;;;;;15.97;9.17;;;;;;;5.40;100.00;63494.63;5050297;28;20201;-55
2023/12/13 01:06:23;;;;;;;19.40;9.27;;;;;;;5.68;100.00;63527.06;5050258;28;20197;-57
2023/12/13 01:08:49;;;;;;;16.00;9.10;;;;;;;5.54;100.00;63509.31;5049673;28;20185;-54
2023/12/13 01:11:15;;;;;;;18.37;9.37;;;;;;;5.64;100.00;63520.75;5050297;28;20259;-55
2023/12/13 01:13:41;;;;;;;18.00;9.23;;;;;;;5.75;100.00;63532.19;5050170;28;20615;-54
2023/12/13 01:16:07;;;;;;;15.50;8.83;;;;;;;5.79;100.00;63534.59;5065906;22;20220;-55
2023/12/13 01:18:33;;;;;;;16.43;8.90;;;;;;;5.71;100.00;63527.84;5049414;28;20275;-55
2023/12/13 01:20:58;;;;;;;16.83;9.40;;;;;;;5.51;100.00;63504.13;5050137;28;20190;-55
2023/12/13 01:23:24;;;;;;;18.03;9.50;;;;;;;5.42;100.00;63491.25;5049944;28;20647;-54
2023/12/13 01:25:49;;;;;;;20.17;9.57;;;;;;;5.29;100.00;63482.66;5049782;28;20304;-55
2023/12/13 01:28:15;;;;;;;16.57;7.70;;;;;;;5.30;100.00;63483.19;5049994;28;20198;-54
2023/12/13 01:30:40;;;;;;;10.57;7.17;;;;;;;5.28;100.00;63479.06;5032326;28;20287;-58
2023/12/13 01:33:06;;;;;;;9.50;6.17;;;;;;;5.42;100.00;63494.31;5049994;28;20220;-53
2023/12/13 01:35:31;;;;;;;8.57;5.57;;;;;;;5.55;100.00;63510.44;5050057;28;20473;-53
2023/12/13 01:37:57;;;;;;;10.43;5.03;;;;;;;5.40;100.00;63491.59;5015480;28;20248;-53
2023/12/13 01:40:22;;;;;;;9.10;5.03;;;;;;;5.29;100.00;63482.13;5050875;28;20639;-54
2023/12/13 01:42:48;;;;;;;8.23;4.83;;;;;;;5.33;100.00;63483.97;5053135;28;20658;-55
2023/12/13 01:45:13;;;;;;;10.80;5.20;;;;;;;5.36;100.00;63485.28;5053297;28;20204;-56
2023/12/13 01:47:39;;;;;;;8.83;5.43;;;;;;;5.38;100.00;63491.91;5053172;28;20585;-55
2023/12/13 01:50:05;;;;;;;10.47;4.40;;;;;;;5.58;100.00;63513.69;5053116;28;20541;-56
2023/12/13 01:52:31;;;;;;;8.23;5.13;;;;;;;5.51;100.00;63506.06;5053136;28;20299;-55
2023/12/13 01:54:57;;;;;;;6.27;3.83;;;;;;;5.57;100.00;63513.16;5053181;28;20272;-55
2023/12/13 01:57:23;;;;;;;7.00;4.13;;;;;;;5.50;100.00;63504.97;5052834;28;20212;-53
2023/12/13 01:59:49;;;;;;;6.77;4.27;;;;;;;5.35;100.00;63489.19;5052714;28;20659;-53
2023/12/13 02:02:15;;;;;;;6.70;3.83;;;;;;;5.31;100.00;63484.84;5052900;28;20300;-52
2023/12/13 02:04:41;;;;;;;5.10;3.60;;;;;;;5.55;100.00;63507.94;5052846;28;20698;-53
2023/12/13 02:07:06;;;;;;;7.97;5.10;;;;;;;5.55;100.00;63510.44;5034695;28;20213;-54
2023/12/13 02:09:32;;;;;;;6.90;3.67;;;;;;;5.67;100.00;63521.00;5034910;28;20216;-54
2023/12/13 02:11:57;;;;;;;6.80;4.37;;;;;;;5.70;100.00;63527.28;5053205;28;20217;-54
2023/12/13 02:14:25;;;;;;;6.47;3.73;;;;;;;5.79;100.00;63534.59;5052720;28;20771;-55
2023/12/13 02:16:50;;;;;;;7.50;4.73;;;;;;;5.69;100.00;63525.66;5052956;28;20228;-54
2023/12/13 02:19:16;;;;;;;5.90;3.67;;;;;;;5.69;100.00;63526.22;5052720;28;20194;-53
2023/12/13 02:21:41;;;;;;;5.30;3.70;;;;;;;5.71;100.00;63525.34;5052743;28;20662;-54
2023/12/13 02:24:08;;;;;;;5.50;3.70;;;;;;;5.66;100.00;63520.44;5052599;28;20547;-55
2023/12/13 02:26:43;;;;;;;4.90;3.20;;;;;;;5.40;100.00;63492.13;5052641;28;20228;-56
2023/12/13 02:29:09;;;;;;;8.63;3.97;;;;;;;5.54;100.00;63507.38;5034541;28;20189;-58
2023/12/13 02:31:35;;;;;;;7.30;4.07;;;;;;;5.49;100.00;63504.44;5052686;28;20725;-53
2023/12/13 02:34:01;;;;;;;6.80;4.10;;;;;;;5.50;100.00;63502.47;5018064;28;20606;-52
2023/12/13 02:36:27;;;;;;;5.27;3.53;;;;;;;5.77;100.00;63531.88;5052526;28;20232;-53
2023/12/13 02:38:52;;;;;;;7.30;3.70;;;;;;;5.78;100.00;63533.50;5052512;28;20215;-53
2023/12/13 02:41:18;;;;;;;6.20;4.03;;;;;;;5.64;100.00;63520.22;5052207;28;20182;-60
2023/12/13 02:43:44;;;;;;;7.00;4.17;;;;;;;5.57;100.00;63510.66;5034412;28;20186;-54
2023/12/13 02:46:09;;;;;;;10.33;5.37;;;;;;;5.31;100.00;63484.28;5052342;28;20228;-54
2023/12/13 02:48:35;;;;;;;8.60;5.80;;;;;;;5.43;100.00;63497.34;5052129;28;20737;-55
2023/12/13 02:51:00;;;;;;;9.83;5.53;;;;;;;4.76;100.00;63422.47;5052113;28;20313;-54
2023/12/13 02:53:26;;;;;;;9.73;5.77;;;;;;;5.03;100.00;63452.41;5033430;28;20205;-54
2023/12/13 02:55:51;;;;;;;10.17;6.20;;;;;;;5.13;100.00;63462.72;5052040;28;20189;-53
2023/12/13 02:58:17;;;;;;;9.97;6.00;;;;;;;5.15;100.00;63466.88;5052052;28;20706;-53
2023/12/13 03:00:42;;;;;;;10.70;5.97;;;;;;;5.35;100.00;63489.19;5052381;28;20193;-54
2023/12/13 03:03:08;;;;;;;10.03;6.33;;;;;;;5.25;100.00;63475.25;5051834;28;20703;-53
2023/12/13 03:05:34;;;;;;;9.50;6.70;;;;;;;5.20;100.00;63472.84;5052010;28;20212;-52
2023/12/13 03:07:59;;;;;;;10.80;7.33;;;;;;;5.19;100.00;63469.28;5051853;28;20217;-54
2023/12/13 03:10:25;;;;;;;11.43;7.33;;;;;;;5.30;100.00;63483.75;5051954;28;20240;-54
2023/12/13 03:12:51;;;;;;;11.97;7.47;;;;;;;5.61;100.00;63514.47;5051832;28;20593;-54
2023/12/13 03:15:16;;;;;;;8.97;6.40;;;;;;;5.74;100.00;63528.59;5052020;28;20201;-52
2023/12/13 03:17:42;;;;;;;10.70;6.90;;;;;;;5.68;100.00;63525.13;5033801;28;20245;-55
2023/12/13 03:20:09;;;;;;;15.17;8.00;;;;;;;5.72;100.00;63529.47;5051778;28;20202;-53
2023/12/13 03:22:35;;;;;;;11.47;7.00;;;;;;;5.40;100.00;63491.59;5051869;28;20209;-54
2023/12/13 03:25:01;;;;;;;10.37;7.37;;;;;;;5.53;100.00;63508.78;5034030;28;20648;-52
2023/12/13 03:27:26;;;;;;;12.67;7.40;;;;;;;5.45;100.00;63502.03;5051596;28;20266;-59
2023/12/13 03:29:52;;;;;;;16.00;8.07;;;;;;;5.20;100.00;63469.81;5051509;28;20209;-54
2023/12/13 03:32:17;;;;;;;17.10;9.00;;;;;;;4.36;100.00;63381.47;5051746;28;20223;-55
2023/12/13 03:34:43;;;;;;;15.33;8.87;;;;;;;4.59;100.00;63407.03;5051496;28;20191;-56
2023/12/13 03:37:09;;;;;;;12.40;7.63;;;;;;;5.15;100.00;63464.38;5051439;28;20628;-55
2023/12/13 03:39:34;;;;;;;12.27;8.37;;;;;;;5.39;100.00;63488.00;5051445;28;20243;-55
2023/12/13 03:42:00;;;;;;;13.13;8.23;;;;;;;5.40;100.00;63494.09;5051271;28;20216;-55
2023/12/13 03:44:26;;;;;;;14.80;7.90;;;;;;;5.13;100.00;63465.22;5051618;28;20200;-54
2023/12/13 03:46:51;;;;;;;17.97;9.40;;;;;;;4.72;100.00;63420.63;5051616;28;20825;-55
2023/12/13 03:49:17;;;;;;;14.37;8.57;;;;;;;5.02;100.00;63453.81;5051261;28;20188;-54
2023/12/13 03:51:47;;;;;;;14.73;8.97;;;;;;;4.96;100.00;63446.75;5051035;28;20231;-55
2023/12/13 03:54:13;;;;;;;17.33;9.57;;;;;;;4.64;100.00;63409.97;5033327;28;20251;-55
2023/12/13 03:56:39;;;;;;;18.77;9.03;;;;;;;4.97;100.00;63448.38;5051286;28;20349;-59
2023/12/13 03:59:05;;;;;;;18.13;9.33;;;;;;;5.22;100.00;63474.50;5051132;28;20672;-55
2023/12/13 04:01:31;;;;;;;17.93;9.63;;;;;;;5.24;100.00;63476.66;5033547;28;20197;-55
2023/12/13 04:03:56;;;;;;;15.57;8.57;;;;;;;5.48;100.00;63500.84;5050785;28;20268;-53
2023/12/13 04:06:22;;;;;;;14.60;8.27;;;;;;;5.69;100.00;63528.72;5050913;28;20664;-53
2023/12/13 04:08:48;;;;;;;14.90;8.07;;;;;;;5.48;100.00;63500.28;5033115;28;20215;-54
2023/12/13 04:11:13;;;;;;;15.70;8.90;;;;;;;5.25;100.00;63475.25;5051080;28;20623;-53
2023/12/13 04:13:39;;;;;;;12.33;8.17;;;;;;;5.63;100.00;63519.13;5050945;28;20218;-53
2023/12/13 04:16:05;;;;;;;11.43;7.60;;;;;;;6.10;100.00;63567.84;5051022;28;20201;-53
2023/12/13 04:18:31;;;;;;;14.07;8.93;;;;;;;6.15;100.00;63575.78;5050670;28;20201;-58
2023/12/13 04:20:56;;;;;;;13.03;8.00;;;;;;;5.98;100.00;63557.25;5051013;28;20189;-55
2023/12/13 04:23:22;;;;;;;12.53;7.90;;;;;;;5.62;100.00;63515.53;5050744;28;20241;-53
2023/12/13 04:25:47;;;;;;;14.70;7.73;;;;;;;5.47;100.00;63499.22;5050698;28;20193;-56
2023/12/13 04:28:13;;;;;;;11.90;7.77;;;;;;;5.85;100.00;63543.66;5050745;28;20636;-56
2023/12/13 04:30:39;;;;;;;17.60;8.87;;;;;;;5.64;100.00;63520.22;5050710;28;20752;-54
2023/12/13 04:33:05;;;;;;;14.27;8.13;;;;;;;5.79;100.00;63534.59;5050681;28;20214;-55
2023/12/13 04:35:32;;;;;;;19.43;8.77;;;;;;;5.53;100.00;63506.28;5050829;28;20201;-56
2023/12/13 04:37:58;;;;;;;12.80;8.53;;;;;;;5.27;100.00;63477.44;5050394;28;20296;-55
2023/12/13 04:40:24;;;;;;;11.60;7.33;;;;;;;5.39;100.00;63493.00;5050772;28;20269;-55
2023/12/13 04:42:50;;;;;;;13.53;7.63;;;;;;;5.21;100.00;63473.41;5050357;28;20255;-55
2023/12/13 04:45:16;;;;;;;16.97;9.10;;;;;;;5.29;100.00;63480.16;5050719;28;20263;-55
2023/12/13 04:47:42;;;;;;;12.17;7.50;;;;;;;5.11;100.00;63463.59;5049931;28;20691;-57
2023/12/13 04:50:09;;;;;;;14.83;8.03;;;;;;;4.96;100.00;63446.75;5050504;28;20213;-55
2023/12/13 04:52:34;;;;;;;14.17;7.50;;;;;;;5.12;100.00;63464.16;5050322;28;20240;-55
2023/12/13 04:55:00;;;;;;;18.93;10.13;;;;;;;5.39;100.00;63493.00;5050383;28;20632;-55
2023/12/13 04:57:25;;;;;;;13.20;7.90;;;;;;;5.22;100.00;63469.50;5050393;28;20248;-56
2023/12/13 04:59:51;;;;;;;12.07;7.70;;;;;;;4.89;100.00;63439.66;5050249;28;20600;-55
2023/12/13 05:02:16;;;;;;;15.13;8.43;;;;;;;5.30;100.00;63483.75;5050267;28;20209;-55
2023/12/13 05:04:42;;;;;;;15.83;8.70;;;;;;;4.93;100.00;63444.00;5050132;28;20185;-55
2023/12/13 05:07:08;;;;;;;14.97;9.07;;;;;;;5.18;100.00;63470.13;5050147;28;20733;-54
2023/12/13 05:09:34;;;;;;;19.10;8.40;;;;;;;4.92;100.00;63442.94;4999749;28;20256;-55
2023/12/13 05:12:00;;;;;;;12.97;8.17;;;;;;;5.35;100.00;63489.19;5050563;28;20311;-54
2023/12/13 05:14:25;;;;;;;14.23;9.07;;;;;;;5.36;100.00;63489.72;5050084;28;20193;-52
2023/12/13 05:16:51;;;;;;;16.23;8.77;;;;;;;5.24;100.00;63476.66;5053528;28;20221;-53
2023/12/13 05:19:16;;;;;;;16.40;9.40;;;;;;;4.90;100.00;63440.75;5053621;28;20604;-53
2023/12/13 05:21:42;;;;;;;15.43;8.80;;;;;;;4.99;100.00;63450.53;5053775;28;20216;-54
2023/12/13 05:24:08;;;;;;;15.07;8.33;;;;;;;5.04;100.00;63452.94;5053531;28;20361;-55
2023/12/13 05:26:35;;;;;;;13.83;8.23;;;;;;;5.08;100.00;63459.78;5053465;28;20204;-54
2023/12/13 05:29:02;;;;;;;14.63;8.13;;;;;;;5.22;100.00;63474.50;5035954;28;20239;-54
2023/12/13 05:31:28;;;;;;;13.90;8.53;;;;;;;4.73;100.00;63422.25;5053379;28;20270;-54
2023/12/13 05:33:54;;;;;;;13.93;8.80;;;;;;;4.32;100.00;63377.66;5053398;28;20196;-56
2023/12/13 05:36:20;;;;;;;15.80;8.87;;;;;;;4.43;100.00;63389.63;5035639;28;20213;-59
2023/12/13 05:38:45;;;;;;;19.20;10.27;;;;;;;4.22;100.00;63364.31;5053063;28;20187;-53
2023/12/13 05:41:11;;;;;;;16.70;10.30;;;;;;;4.02;100.00;63345.06;5052856;28;20194;-54
2023/12/13 05:43:36;;;;;;;23.20;13.37;;;;;;;3.65;100.00;63307.31;5051595;28;20216;-54
2023/12/13 05:46:04;;;;;;;26.80;12.73;;;;;;;3.83;100.00;63324.38;5053223;28;20196;-53
2023/12/13 05:48:30;;;;;;;24.60;14.37;;;;;;;3.80;100.00;63321.66;5051532;28;20221;-53
2023/12/13 05:50:55;;;;;;;24.20;12.80;;;;;;;4.19;100.00;63363.53;5052969;28;20213;-54
2023/12/13 05:53:20;;;;;;;26.50;13.93;;;;;;;4.48;100.00;63395.06;5053049;28;20771;-54
2023/12/13 05:55:46;;;;;;;25.70;13.80;;;;;;;4.04;100.00;63347.22;5053187;28;20186;-53
2023/12/13 05:58:11;;;;;;;25.97;14.00;;;;;;;3.97;100.00;63340.16;5035017;28;20211;-54
2023/12/13 06:00:38;;;;;;;27.73;15.50;;;;;;;4.01;100.00;63342.00;5052886;28;20204;-55
2023/12/13 06:03:03;;;;;;;25.70;15.00;;;;;;;4.28;100.00;63372.78;5034994;28;20223;-55
2023/12/13 06:05:29;;;;;;;23.83;13.77;;;;;;;4.55;100.00;63400.19;5053010;28;20186;-54
2023/12/13 06:07:55;;;;;;;22.27;13.73;;;;;;;4.95;100.00;63446.19;5035043;28;20239;-56
2023/12/13 06:10:20;;;;;;;28.03;14.30;;;;;;;4.61;100.00;63409.19;5034881;28;20219;-56
2023/12/13 06:12:50;;;;;;;27.17;15.67;;;;;;;4.54;100.00;63401.59;5052610;28;20246;-56
2023/12/13 06:15:16;;;;;;;32.43;15.63;;;;;;;5.30;100.00;63481.25;5035504;28;20192;-57
2023/12/13 06:17:41;;;;;;;35.83;18.57;;;;;;;6.49;100.00;63612.84;5052604;28;20200;-58
2023/12/13 06:20:08;;;;;;;34.93;19.90;;;;;;;6.66;100.00;63630.84;5035035;28;20551;-59
2023/12/13 06:22:34;;;;;;;32.70;19.63;;;;;;;6.59;100.00;63623.75;5052839;28;20213;-64
2023/12/13 06:25:00;;;;;;;31.63;20.33;;;;;;;6.62;100.00;63626.47;5034653;28;20208;-58
2023/12/13 06:27:25;;;;;;;31.47;19.80;;;;;;;6.52;100.00;63613.06;5052204;28;20217;-58
2023/12/13 06:29:51;;;;;;;32.37;19.90;;;;;;;6.43;100.00;63603.25;5052485;28;20221;-60
2023/12/13 06:32:16;;;;;;;34.80;19.10;;;;;;;6.32;100.00;63594.31;5034461;28;20675;-58
2023/12/13 06:34:42;;;;;;;33.63;21.27;;;;;;;5.89;100.00;63548.03;5052213;28;20203;-58
2023/12/13 06:37:14;;;;;;;34.27;19.83;;;;;;;5.57;100.00;63512.59;5052306;28;20308;-58
2023/12/13 06:39:40;;;;;;;42.27;20.50;;;;;;;6.04;100.00;63561.31;5052055;28;20189;-59
2023/12/13 06:42:09;;;;;;;30.97;19.00;;;;;;;6.14;100.00;63569.69;5052000;28;20197;-59
2023/12/13 06:44:39;;;;;;;33.60;21.13;;;;;;;5.88;100.00;63543.88;5052246;28;20185;-59
2023/12/13 06:47:06;;;;;;;35.90;19.93;;;;;;;5.91;100.00;63549.66;5050748;28;20217;-59
2023/12/13 06:49:32;;;;;;;36.33;20.87;;;;;;;5.83;100.00;63544.00;5052129;28;20201;-57
2023/12/13 06:51:58;;;;;;;35.67;19.67;;;;;;;6.02;100.00;63561.63;5051483;28;20282;-58
2023/12/13 06:54:24;;;;;;;38.00;19.73;;;;;;;5.99;100.00;63558.38;5051377;28;20204;-60
2023/12/13 06:56:50;;;;;;;34.30;20.33;;;;;;;6.05;100.00;63564.91;5033997;28;20213;-57
2023/12/13 06:59:15;;;;;;;33.03;19.60;;;;;;;6.03;100.00;63560.22;5034628;28;20181;-57
2023/12/13 07:01:41;;;;;;;28.83;18.23;;;;;;;5.68;100.00;63522.63;5052144;28;20202;-57
2023/12/13 07:04:07;;;;;;;32.10;18.60;;;;;;;5.57;100.00;63513.16;5034138;28;20177;-62
2023/12/13 07:06:33;;;;;;;39.77;21.27;;;;;;;5.48;100.00;63502.78;5050514;28;20204;-60
2023/12/13 07:08:59;;;;;;;35.97;22.37;;;;;;;5.22;100.00;63472.00;5052010;28;20533;-58
2023/12/13 07:11:25;;;;;;;40.17;22.03;;;;;;;5.34;100.00;63485.59;5051800;28;20709;-59
2023/12/13 07:13:51;;;;;;;33.73;20.80;;;;;;;5.72;100.00;63528.94;5052008;28;20185;-60
2023/12/13 07:16:16;;;;;;;40.13;23.13;;;;;;;5.24;100.00;63476.66;5017661;28;20263;-59
2023/12/13 07:18:42;;;;;;;38.47;21.37;;;;;;;5.54;100.00;63509.31;5051782;28;20562;-60
2023/12/13 07:21:08;;;;;;;39.87;22.30;;;;;;;5.98;100.00;63556.75;5050473;28;20201;-60
2023/12/13 07:23:35;;;;;;;33.67;20.63;;;;;;;5.66;100.00;63522.94;5051620;28;20202;-58
2023/12/13 07:26:02;;;;;;;31.80;18.40;;;;;;;5.84;100.00;63540.06;5052047;28;20201;-60
2023/12/13 07:28:29;;;;;;;32.17;20.07;;;;;;;6.10;100.00;63567.31;5051498;28;20208;-59
2023/12/13 07:30:57;;;;;;;42.07;20.53;;;;;;;6.21;100.00;63579.84;5034124;28;20224;-59
2023/12/13 07:33:24;;;;;;;36.03;19.87;;;;;;;6.23;100.00;63584.50;5051386;28;20205;-58
2023/12/13 07:35:50;;;;;;;37.00;20.97;;;;;;;5.96;100.00;63555.09;5051894;28;20213;-58
2023/12/13 07:38:16;;;;;;;36.07;20.63;;;;;;;6.30;100.00;63589.63;5051032;28;20213;-59
2023/12/13 07:40:47;;;;;;;40.27;21.73;;;;;;;6.21;100.00;63582.34;5051405;28;20272;-60
2023/12/13 07:43:13;;;;;;;35.57;20.33;;;;;;;6.31;100.00;63590.19;5051392;28;20256;-60
2023/12/13 07:45:38;;;;;;;29.80;18.53;;;;;;;6.65;100.00;63630.28;5051538;28;20268;-59
2023/12/13 07:48:05;;;;;;;29.20;17.37;;;;;;;6.57;100.00;63621.03;5051513;28;20209;-58
2023/12/13 07:50:31;;;;;;;26.93;16.57;;;;;;;6.64;100.00;63626.72;5051194;28;20227;-60
2023/12/13 07:52:57;;;;;;;27.00;17.07;;;;;;;6.30;100.00;63587.13;5051061;28;20308;-60
2023/12/13 07:55:23;;;;;;;25.70;16.10;;;;;;;6.36;100.00;63598.66;5051423;28;20268;-58
2023/12/13 07:57:49;;;;;;;31.77;18.40;;;;;;;6.75;100.00;63641.19;5051001;28;20275;-58
2023/12/13 08:00:15;;;;;;;34.77;19.13;;;;;;;6.33;100.00;63594.84;5051114;28;20199;-59
2023/12/13 08:02:41;;;;;;;33.67;19.50;;;;;;;6.49;100.00;63612.28;5050879;28;20213;-63
2023/12/13 08:05:08;;;;;;;31.87;19.03;;;;;;;6.68;100.00;63628.00;5051105;28;20197;-63
2023/12/13 08:07:35;;;;;;;33.40;20.17;;;;;;;6.98;100.00;63663.22;5033071;28;20232;-58
2023/12/13 08:10:02;;;;;;;32.73;18.40;;;;;;;7.07;100.00;63675.53;5051019;28;20213;-66
2023/12/13 08:12:28;;;;;;;31.67;19.03;;;;;;;6.88;100.00;63654.28;5032997;28;20237;-59
2023/12/13 08:14:53;;;;;;;31.03;18.10;;;;;;;7.07;100.00;63675.00;5050948;28;20216;-61
2023/12/13 08:17:20;;;;;;;30.70;18.43;;;;;;;7.17;100.00;63683.41;5049617;28;20213;-58
2023/12/13 08:19:46;;;;;;;38.00;19.93;;;;;;;7.20;100.00;63689.19;5049495;28;20201;-59
2023/12/13 08:22:11;;;;;;;32.33;19.63;;;;;;;7.24;100.00;63696.59;5050966;28;20607;-59
2023/12/13 08:24:37;;;;;;;30.73;18.43;;;;;;;7.38;100.00;63706.31;5050953;28;20647;-59
2023/12/13 08:27:03;;;;;;;32.07;19.40;;;;;;;7.18;100.00;63685.03;5050747;28;20239;-59
2023/12/13 08:29:29;;;;;;;33.57;19.97;;;;;;;7.36;100.00;63704.69;5050567;28;20296;-59
2023/12/13 08:31:55;;;;;;;36.70;20.33;;;;;;;7.04;100.00;63672.28;5050761;28;20221;-58
2023/12/13 08:34:20;;;;;;;36.13;20.70;;;;;;;7.22;100.00;63689.41;5050687;28;20227;-59
2023/12/13 08:36:46;;;;;;;34.80;20.47;;;;;;;6.95;100.00;63659.41;5051168;28;20205;-58
2023/12/13 08:39:12;;;;;;;39.23;20.70;;;;;;;6.72;100.00;63637.38;5050698;28;20255;-58
2023/12/13 08:41:38;;;;;;;33.10;20.13;;;;;;;7.13;100.00;63677.06;5068504;22;20712;-58
2023/12/13 08:44:03;;;;;;;44.63;22.30;;;;;;;6.56;100.00;63620.50;5030777;28;20194;-57
2023/12/13 08:46:30;;;;;;;35.10;19.07;;;;;;;6.93;100.00;63657.25;5029261;28;20681;-59
2023/12/13 08:48:55;;;;;;;36.00;21.43;;;;;;;6.65;100.00;63627.78;5030447;28;20186;-59
2023/12/13 08:51:21;;;;;;;33.73;20.00;;;;;;;6.67;100.00;63629.97;5033201;28;20225;-59
2023/12/13 08:53:49;;;;;;;32.57;19.70;;;;;;;6.88;100.00;63654.28;5034114;28;20566;-58
2023/12/13 08:56:15;;;;;;;37.00;19.93;;;;;;;6.73;100.00;63639.00;5034073;28;20193;-59
2023/12/13 08:58:41;;;;;;;35.37;19.53;;;;;;;6.76;100.00;63639.25;5034080;28;20293;-57
2023/12/13 09:01:07;;;;;;;31.63;20.27;;;;;;;7.04;100.00;63669.22;5034143;28;20282;-58
2023/12/13 09:03:33;;;;;;;35.60;18.83;;;;;;;6.57;100.00;63619.06;5034120;28;20206;-57
2023/12/13 09:05:58;;;;;;;32.40;19.33;;;;;;;6.66;100.00;63631.38;5032729;28;20225;-57
2023/12/13 09:08:24;;;;;;;32.53;18.87;;;;;;;6.62;100.00;63627.03;5033854;28;20227;-57
2023/12/13 09:10:49;;;;;;;31.07;19.33;;;;;;;7.17;100.00;63683.41;5033909;28;20297;-59
2023/12/13 09:13:15;;;;;;;33.10;17.93;;;;;;;6.85;100.00;63651.53;5033834;28;20213;-57
2023/12/13 09:15:42;;;;;;;37.37;20.67;;;;;;;6.70;100.00;63633.25;5034299;28;20202;-59
2023/12/13 09:18:08;;;;;;;35.87;20.80;;;;;;;6.75;100.00;63638.69;5033746;28;20208;-59
2023/12/13 09:20:34;;;;;;;35.43;20.80;;;;;;;6.74;100.00;63640.13;5033697;28;20263;-57
2023/12/13 09:22:59;;;;;;;32.03;19.40;;;;;;;7.16;100.00;63682.84;5033759;28;20272;-60
2023/12/13 09:25:25;;;;;;;29.13;17.10;;;;;;;7.10;100.00;63676.31;5033625;28;20225;-57
2023/12/13 09:27:50;;;;;;;36.70;19.17;;;;;;;7.36;100.00;63701.63;5033351;28;20214;-57
2023/12/13 09:30:16;;;;;;;37.00;20.97;;;;;;;7.72;100.00;63745.34;5032057;28;20213;-56
2023/12/13 09:32:42;;;;;;;29.73;17.67;;;;;;;8.12;100.00;63786.53;5033502;28;20221;-57
2023/12/13 09:35:08;;;;;;;39.17;18.37;;;;;;;8.48;100.00;63825.31;5033506;28;20221;-57
2023/12/13 09:37:34;;;;;;;32.90;18.07;;;;;;;8.27;100.00;63803.47;5033368;28;20683;-57
2023/12/13 09:39:59;;;;;;;26.83;16.33;;;;;;;8.44;100.00;63822.03;5033860;28;20252;-57
2023/12/13 09:42:28;;;;;;;26.50;16.43;;;;;;;8.68;100.00;63852.19;5033333;28;20260;-57
2023/12/13 09:44:55;;;;;;;28.87;16.50;;;;;;;8.57;100.00;63835.13;5032015;28;20277;-57
2023/12/13 09:47:23;;;;;;;24.93;14.30;;;;;;;8.52;100.00;63832.19;5032997;28;20271;-58
2023/12/13 09:49:49;;;;;;;28.33;14.03;;;;;;;8.73;100.00;63850.09;5033309;28;20268;-56
2023/12/13 09:52:20;;;;;;;20.47;13.07;;;;;;;8.94;100.00;63878.63;5033376;28;20217;-57
2023/12/13 09:54:47;;;;;;;22.60;12.20;;;;;;;9.15;100.00;63898.53;5033291;28;20191;-57
2023/12/13 09:57:13;;;;;;;23.23;10.90;;;;;;;9.17;100.00;63903.75;5032891;28;20264;-62
2023/12/13 09:59:40;;;;;;;19.20;11.43;;;;;;;9.03;100.00;63885.94;5033154;28;20194;-58
2023/12/13 10:02:11;;;;;;;16.80;9.53;;;;;;;8.90;100.00;63871.19;5031223;28;20214;-58
2023/12/13 10:04:38;;;;;;;17.97;10.90;;;;;;;8.97;100.00;63881.91;5032993;28;20265;-56
2023/12/13 10:07:07;;;;;;;27.87;12.13;;;;;;;9.01;100.00;63886.28;5032937;28;20210;-57
2023/12/13 10:09:34;;;;;;;21.67;10.90;;;;;;;9.05;100.00;63887.59;5032868;28;20571;-57
2023/12/13 10:12:00;;;;;;;20.27;10.57;;;;;;;9.30;100.00;63914.91;5032846;28;20221;-56
2023/12/13 10:14:26;;;;;;;22.30;11.33;;;;;;;9.31;100.00;63916.53;5051862;22;20882;-55
2023/12/13 10:16:52;;;;;;;18.20;10.70;;;;;;;9.16;100.00;63897.09;5067987;28;20209;-55
2023/12/13 10:19:18;;;;;;;16.47;10.73;;;;;;;9.17;100.00;63900.72;5052513;28;20196;-55
2023/12/13 10:21:46;;;;;;;19.03;11.73;;;;;;;9.14;100.00;63894.91;5052543;28;20209;-55
2023/12/13 10:24:11;;;;;;;22.77;11.07;;;;;;;9.55;100.00;63942.25;5034688;28;20670;-57
2023/12/13 10:26:39;;;;;;;18.83;11.80;;;;;;;9.12;100.00;63895.25;5052400;28;20205;-55
2023/12/13 10:29:05;;;;;;;27.07;14.30;;;;;;;9.12;100.00;63895.78;5052406;28;20193;-57
2023/12/13 10:31:31;;;;;;;23.47;12.53;;;;;;;9.30;100.00;63917.97;5034276;28;20583;-56
2023/12/13 10:33:57;;;;;;;18.97;12.33;;;;;;;8.91;100.00;63872.84;5052326;28;20197;-55
2023/12/13 10:36:26;;;;;;;27.13;13.37;;;;;;;9.14;100.00;63897.97;5052302;28;20193;-56
2023/12/13 10:38:53;;;;;;;20.67;12.53;;;;;;;9.42;100.00;63927.47;5050279;28;20209;-57
2023/12/13 10:41:27;;;;;;;17.50;11.57;;;;;;;9.54;100.00;63943.66;5050556;28;20193;-61
2023/12/13 10:43:58;;;;;;;23.03;13.93;;;;;;;9.49;100.00;63938.22;5052409;28;20621;-57
2023/12/13 10:46:33;;;;;;;24.27;14.10;;;;;;;9.39;100.00;63924.22;5052420;28;20197;-57
2023/12/13 10:49:00;;;;;;;21.70;14.17;;;;;;;9.21;100.00;63905.63;5035500;28;20193;-55
2023/12/13 10:51:27;;;;;;;21.03;13.80;;;;;;;9.08;100.00;63888.91;5051938;28;20221;-57
2023/12/13 10:53:55;;;;;;;21.13;13.10;;;;;;;8.95;100.00;63876.66;5052364;28;20189;-56
2023/12/13 10:56:21;;;;;;;24.63;13.27;;;;;;;9.17;100.00;63900.72;5052091;28;20205;-56
2023/12/13 10:58:47;;;;;;;25.27;14.50;;;;;;;9.24;100.00;63908.34;5052079;28;20193;-56
2023/12/13 11:01:15;;;;;;;21.03;13.53;;;;;;;9.52;100.00;63938.41;5052089;28;20193;-56
2023/12/13 11:03:58;;;;;;;24.67;13.80;;;;;;;9.09;100.00;63894.47;5051825;28;20238;-56
2023/12/13 11:06:26;;;;;;;24.00;14.10;;;;;;;9.38;100.00;63923.09;5052116;28;20213;-56
2023/12/13 11:08:51;;;;;;;30.93;15.97;;;;;;;9.37;100.00;63922.56;5051053;28;20192;-57
2023/12/13 11:11:18;;;;;;;22.17;14.17;;;;;;;9.26;100.00;63910.53;5050663;28;20217;-56
2023/12/13 11:13:50;;;;;;;23.77;14.60;;;;;;;9.58;100.00;63942.44;5032894;28;20211;-55
2023/12/13 11:16:24;;;;;;;27.77;14.97;;;;;;;9.42;100.00;63925.50;5051696;28;20602;-58
2023/12/13 11:18:57;;;;;;;26.07;14.17;;;;;;;9.17;100.00;63901.25;5051849;28;20181;-53